Time;durP1;ratioP1;P1;durP2;ratioP2;P2;SDS_P1;SDS_P2;PMS_P1;PMS_P2;Temp;Humidity;BMP_temperature;BMP_pressure;BME280_temperature;BME280_humidity;BME280_pressure;Samples;Min_cycle;Max_cycle;Signal;HPM_P1;HPM_P2
2022/11/24 00:09:03;;;;;;;0.30;0.10;;;-0.20;99.90;;;;;;20225855;23;20114;-53
2022/11/24 00:19:08;;;;;;;4.32;0.10;;;0.00;99.90;;;;;;20162138;23;20413;-51
2022/11/24 00:29:27;;;;;;;0.30;0.20;;;-0.40;99.90;;;;;;20124289;23;20122;-58
2022/11/24 00:39:29;;;;;;;0.30;0.10;;;-0.70;99.90;;;;;;20222456;23;20061;-52
2022/11/24 00:49:32;;;;;;;4.20;0.20;;;-0.70;99.90;;;;;;20995003;23;20053;-51
2022/11/24 00:59:34;;;;;;;0.55;0.20;;;-0.70;99.90;;;;;;20195363;23;20115;-59
2022/11/24 01:09:42;;;;;;;0.30;0.10;;;-0.20;99.90;;;;;;20174828;23;20067;-50
2022/11/24 01:19:48;;;;;;;0.55;0.10;;;0.00;99.90;;;;;;20978046;23;20070;-51
2022/11/24 01:29:50;;;;;;;0.35;0.10;;;-0.20;99.90;;;;;;20148451;23;20061;-58
2022/11/24 01:39:53;;;;;;;0.25;0.10;;;0.60;99.90;;;;;;20199195;23;20054;-50
2022/11/24 01:50:00;;;;;;;0.20;0.10;;;1.30;99.90;;;;;;20195128;23;20133;-59
2022/11/24 02:00:13;;;;;;;0.70;0.10;;;1.90;99.90;;;;;;20189273;23;20393;-51
2022/11/24 02:10:16;;;;;;;0.20;0.10;;;2.10;99.90;;;;;;20995532;23;20050;-60
2022/11/24 02:20:20;;;;;;;0.10;0.00;;;2.00;99.90;;;;;;20165152;23;20185;-55
2022/11/24 02:30:34;;;;;;;0.20;0.00;;;1.70;99.90;;;;;;20148484;23;20115;-54
2022/11/24 02:40:37;;;;;;;0.10;0.00;;;1.90;99.90;;;;;;20208841;23;20061;-59
2022/11/24 02:50:39;;;;;;;0.30;0.05;;;2.30;99.90;;;;;;20195500;23;20123;-52
2022/11/24 03:00:41;;;;;;;0.17;0.10;;;2.30;99.90;;;;;;20203808;23;20065;-60
2022/11/24 03:10:44;;;;;;;0.00;0.00;;;2.20;99.90;;;;;;20187080;23;20065;-52
2022/11/24 03:20:47;;;;;;;0.10;0.00;;;2.60;99.90;;;;;;20193560;23;20737;-60
2022/11/24 03:31:01;;;;;;;0.08;0.00;;;2.60;99.90;;;;;;20138606;23;20533;-60
2022/11/24 03:41:03;;;;;;;0.13;0.00;;;2.70;99.90;;;;;;20151746;23;20095;-53
2022/11/24 03:51:06;;;;;;;0.00;0.00;;;2.70;99.90;;;;;;20161292;23;1337921;-60
2022/11/24 04:01:09;;;;;;;0.00;0.00;;;2.10;99.90;;;;;;20199055;23;20058;-52
2022/11/24 04:12:42;;;;;;;0.80;0.00;;;1.40;99.90;;;;;;20194902;23;20054;-59
2022/11/24 04:21:34;;;;;;;0.00;0.00;;;1.30;99.90;;;;;;20195089;23;20053;-54
2022/11/24 04:31:36;;;;;;;0.00;0.00;;;1.00;99.90;;;;;;20193335;23;20033;-56
2022/11/24 04:41:50;;;;;;;0.47;0.03;;;1.00;99.90;;;;;;20144481;23;20122;-61
2022/11/24 04:51:52;;;;;;;0.98;0.00;;;1.70;99.90;;;;;;20164010;23;20449;-50
2022/11/24 05:01:55;;;;;;;0.05;0.00;;;2.30;99.90;;;;;;20202426;23;20062;-61
2022/11/24 05:11:57;;;;;;;0.00;0.00;;;2.30;99.90;;;;;;20198393;23;20576;-52
2022/11/24 05:22:01;;;;;;;0.98;0.00;;;2.20;99.90;;;;;;20198319;23;20373;-59
2022/11/24 05:32:03;;;;;;;0.00;0.00;;;2.00;99.90;;;;;;20200484;23;20134;-53
2022/11/24 05:52:42;;;;;;;0.28;0.00;;;2.40;99.90;;;;;;20182523;23;20119;31
2022/11/24 06:02:45;;;;;;;0.35;0.08;;;2.30;99.90;;;;;;20118033;23;20058;-53
2022/11/24 06:12:47;;;;;;;0.22;0.00;;;2.10;99.90;;;;;;20215659;23;20436;-59
2022/11/24 06:22:51;;;;;;;0.15;0.00;;;2.30;99.90;;;;;;20174275;23;20131;-55
2022/11/24 06:32:55;;;;;;;0.10;0.00;;;2.50;99.90;;;;;;20202411;23;20053;-59
2022/11/24 06:42:57;;;;;;;0.00;0.00;;;2.50;99.90;;;;;;20942453;23;20086;-54
2022/11/24 06:53:03;;;;;;;0.28;0.00;;;2.80;98.90;;;;;;20176402;23;20062;31
2022/11/24 07:03:05;;;;;;;0.00;0.00;;;3.10;98.30;;;;;;20118591;23;20123;-62
2022/11/24 07:13:08;;;;;;;0.22;0.00;;;3.20;97.30;;;;;;20201330;23;20057;-55
2022/11/24 07:23:10;;;;;;;0.00;0.00;;;3.30;97.80;;;;;;20193710;23;20560;-62
2022/11/24 07:33:14;;;;;;;0.03;0.00;;;3.50;97.50;;;;;;20162807;23;20482;-55
2022/11/24 07:43:17;;;;;;;0.10;0.00;;;4.10;96.20;;;;;;20193886;23;20700;-61
2022/11/24 07:53:26;;;;;;;0.10;0.00;;;4.50;97.80;;;;;;20179328;23;20106;31
2022/11/24 08:03:39;;;;;;;0.00;0.00;;;5.00;96.20;;;;;;20904233;23;20763;31
2022/11/24 08:13:42;;;;;;;1.80;0.60;;;5.50;96.20;;;;;;20137457;23;20060;-62
2022/11/24 08:23:45;;;;;;;0.10;0.00;;;5.80;96.60;;;;;;20205839;23;20141;-53
2022/11/24 08:33:48;;;;;;;1.55;0.30;;;6.10;96.30;;;;;;20203179;23;20501;-62
2022/11/24 08:43:51;;;;;;;0.60;0.40;;;6.50;96.00;;;;;;20229037;23;21747;-55
2022/11/24 08:53:58;;;;;;;0.08;0.00;;;6.90;94.00;;;;;;20196531;23;20178;-61
2022/11/24 09:04:33;;;;;;;0.57;0.10;;;7.30;93.30;;;;;;20127692;23;20515;-62
2022/11/24 09:14:36;;;;;;;0.00;0.00;;;7.50;92.70;;;;;;19947632;29;20053;-54
2022/11/24 09:24:38;;;;;;;0.28;0.00;;;8.10;90.90;;;;;;21610502;23;20054;-53
2022/11/24 09:34:41;;;;;;;0.20;0.00;;;8.50;90.50;;;;;;20011832;29;20102;-56
2022/11/24 09:45:01;;;;;;;0.10;0.00;;;8.50;90.40;;;;;;19997758;29;20106;-56
2022/11/24 09:55:21;;;;;;;0.73;0.00;;;8.90;88.90;;;;;;20009199;29;20038;-56
2022/11/24 10:05:27;;;;;;;1.10;0.00;;;8.60;87.30;;;;;;20013172;29;20472;-54
2022/11/24 10:15:46;;;;;;;0.15;0.00;;;8.50;89.00;;;;;;20728233;24;20118;-56
2022/11/24 10:25:54;;;;;;;0.40;0.05;;;8.90;85.30;;;;;;20001885;29;20034;-56
2022/11/24 10:36:06;;;;;;;0.10;0.00;;;9.00;83.10;;;;;;20006704;29;20102;-55
2022/11/24 10:46:14;;;;;;;0.00;0.00;;;9.60;81.30;;;;;;20002602;29;20075;-56
2022/11/24 10:56:17;;;;;;;0.80;0.00;;;10.00;78.80;;;;;;20024250;29;20488;-56
2022/11/24 11:06:23;;;;;;;0.00;0.00;;;10.10;80.80;;;;;;20019921;29;20037;-56
2022/11/24 11:16:25;;;;;;;0.10;0.00;;;11.10;78.00;;;;;;20021760;29;20083;-58
2022/11/24 11:26:35;;;;;;;0.25;0.00;;;11.80;79.60;;;;;;20018731;29;20094;-58
2022/11/24 11:36:52;;;;;;;0.00;0.00;;;11.40;75.00;;;;;;20020428;29;20030;-57
2022/11/24 11:46:59;;;;;;;0.20;0.00;;;11.40;72.50;;;;;;20017409;29;20275;-55
2022/11/24 11:57:15;;;;;;;0.00;0.00;;;10.70;73.80;;;;;;20024152;29;20189;-57
2022/11/24 12:07:46;;;;;;;0.00;0.00;;;10.10;76.20;;;;;;20018526;29;20041;-56
2022/11/24 12:17:56;;;;;;;0.00;0.00;;;10.40;76.40;;;;;;20017119;29;20170;-56
2022/11/24 12:28:14;;;;;;;0.40;0.10;;;10.60;76.40;;;;;;20016946;29;20042;-58
2022/11/24 12:39:05;;;;;;;0.00;0.00;;;11.30;77.20;;;;;;20013495;29;20038;-58
2022/11/24 12:49:23;;;;;;;0.10;0.00;;;11.30;76.00;;;;;;20008498;29;20046;-58
2022/11/24 12:59:52;;;;;;;0.00;0.00;;;10.70;77.10;;;;;;20015273;29;20094;-59
2022/11/24 13:10:26;;;;;;;0.40;0.00;;;10.30;76.30;;;;;;20013470;29;20484;-56
2022/11/24 13:20:37;;;;;;;0.30;0.17;;;9.80;75.80;;;;;;19952278;29;20383;-54
2022/11/24 13:30:53;;;;;;;0.38;0.10;;;8.90;81.90;;;;;;19957612;29;20038;-53
2022/11/24 13:40:57;;;;;;;0.77;0.10;;;8.20;86.50;;;;;;19956638;29;20493;-51
2022/11/24 13:51:00;;;;;;;0.50;0.17;;;7.60;85.40;;;;;;19954977;29;20416;-52
2022/11/24 14:01:22;;;;;;;0.20;0.10;;;7.30;89.00;;;;;;19955122;29;20046;-56
2022/11/24 14:11:25;;;;;;;0.73;0.20;;;7.00;90.00;;;;;;19954919;29;20050;-54
2022/11/24 14:21:43;;;;;;;0.40;0.10;;;6.70;91.50;;;;;;19938092;29;20054;-51
2022/11/24 14:31:53;;;;;;;1.27;0.10;;;6.40;94.10;;;;;;19954474;29;20177;-53
2022/11/24 14:41:59;;;;;;;0.20;0.00;;;5.90;93.20;;;;;;21788398;23;20110;31
2022/11/24 14:52:09;;;;;;;0.63;0.00;;;5.60;94.10;;;;;;20128479;23;20066;-60
2022/11/24 15:02:40;;;;;;;1.00;0.03;;;5.20;95.80;;;;;;20195459;23;20102;-56
2022/11/24 15:12:52;;;;;;;0.77;0.10;;;4.50;96.60;;;;;;20194266;23;20130;-60
2022/11/24 15:23:20;;;;;;;0.10;0.00;;;3.80;98.40;;;;;;20132175;23;20568;-65
2022/11/24 15:33:30;;;;;;;1.27;0.10;;;3.40;97.50;;;;;;20155049;23;20061;31
2022/11/24 15:43:35;;;;;;;0.00;0.00;;;3.50;97.50;;;;;;20122735;23;20264;-60
2022/11/24 15:53:50;;;;;;;0.70;0.10;;;3.60;94.60;;;;;;20201283;23;20416;-54
2022/11/24 16:03:53;;;;;;;0.52;0.00;;;3.50;96.90;;;;;;20211551;23;20062;-57
2022/11/24 16:13:56;;;;;;;0.13;0.00;;;3.10;98.60;;;;;;20202300;23;20588;-52
2022/11/24 16:23:58;;;;;;;0.00;0.00;;;2.70;96.90;;;;;;20197850;23;20122;-58
2022/11/24 16:34:00;;;;;;;0.10;0.00;;;2.60;98.50;;;;;;20211150;23;20054;-54
2022/11/24 16:44:17;;;;;;;0.35;0.00;;;2.50;98.80;;;;;;20128666;23;20066;-53
2022/11/24 16:54:20;;;;;;;0.28;0.10;;;2.60;98.30;;;;;;20166830;23;20428;-56
2022/11/24 17:04:22;;;;;;;0.88;0.00;;;2.60;96.70;;;;;;20202197;23;20118;-55
2022/11/24 17:14:25;;;;;;;0.45;0.05;;;2.60;97.90;;;;;;20198309;23;20190;-61
2022/11/24 17:24:30;;;;;;;0.60;0.10;;;2.70;97.70;;;;;;20171564;23;20125;-53
2022/11/24 17:34:33;;;;;;;0.70;0.00;;;3.00;96.90;;;;;;20179867;23;20024;-60
2022/11/24 17:44:41;;;;;;;0.10;0.10;;;3.00;96.70;;;;;;20164269;23;20080;31
2022/11/24 17:54:44;;;;;;;0.57;0.10;;;2.90;97.90;;;;;;20132884;23;20118;-55
2022/11/24 18:04:46;;;;;;;0.20;0.10;;;2.90;96.30;;;;;;20126404;23;2146669;-58
2022/11/24 18:14:49;;;;;;;0.00;0.00;;;2.80;96.60;;;;;;20223073;23;20322;-53
2022/11/24 18:24:52;;;;;;;0.95;0.10;;;3.00;96.00;;;;;;20191746;23;20134;-60
2022/11/24 18:34:55;;;;;;;0.45;0.00;;;3.00;97.00;;;;;;20184287;23;20029;-54
2022/11/24 18:45:05;;;;;;;0.00;0.00;;;2.90;97.10;;;;;;20173805;23;20465;31
2022/11/24 18:55:08;;;;;;;0.20;0.00;;;2.80;97.30;;;;;;20130403;23;20058;-61
2022/11/24 19:05:10;;;;;;;0.60;0.00;;;2.60;97.90;;;;;;20197481;23;20091;-54
2022/11/24 19:15:15;;;;;;;0.00;0.00;;;2.60;97.70;;;;;;20206890;23;20425;-60
2022/11/24 19:25:18;;;;;;;0.20;0.00;;;2.50;97.00;;;;;;20201330;23;20126;-54
2022/11/24 19:35:20;;;;;;;0.00;0.00;;;2.40;97.30;;;;;;20209314;23;20062;-57
2022/11/24 19:45:32;;;;;;;0.10;0.00;;;2.60;96.50;;;;;;20157250;23;20118;-53
2022/11/24 19:55:34;;;;;;;0.20;0.08;;;2.40;97.50;;;;;;20150243;23;20468;-58
2022/11/24 20:05:36;;;;;;;0.73;0.10;;;2.20;98.20;;;;;;20206657;23;20107;-54
2022/11/24 20:15:40;;;;;;;0.63;0.10;;;2.40;96.90;;;;;;20194976;23;20061;-58
2022/11/24 20:25:42;;;;;;;0.30;0.03;;;2.60;96.60;;;;;;20198386;23;20050;-51
2022/11/24 20:35:45;;;;;;;0.20;0.03;;;2.40;98.10;;;;;;20189163;23;20062;-58
2022/11/24 20:46:21;;;;;;;0.30;0.10;;;2.10;98.40;;;;;;20177560;23;20049;-60
2022/11/24 20:56:28;;;;;;;0.22;0.10;;;2.40;97.60;;;;;;20195942;23;20118;-55
2022/11/24 21:06:30;;;;;;;0.05;0.00;;;2.00;99.90;;;;;;20142580;23;20065;-58
2022/11/24 21:16:36;;;;;;;0.35;0.05;;;1.60;99.90;;;;;;20199743;23;20062;-59
2022/11/24 21:26:39;;;;;;;0.38;0.00;;;1.60;99.90;;;;;;20212085;23;20462;-51
2022/11/24 21:36:43;;;;;;;0.20;0.00;;;1.60;99.90;;;;;;20194730;23;20110;-59
2022/11/24 21:46:46;;;;;;;0.00;0.00;;;2.10;99.80;;;;;;20175894;23;20070;-55
2022/11/24 21:56:55;;;;;;;0.98;0.00;;;2.20;99.90;;;;;;20189542;23;20062;31
2022/11/24 22:06:57;;;;;;;1.35;0.20;;;2.30;99.90;;;;;;20127427;23;20629;-58
2022/11/24 22:17:00;;;;;;;0.00;0.00;;;2.30;99.30;;;;;;20190417;23;20126;-53
2022/11/24 22:27:03;;;;;;;0.00;0.00;;;2.20;99.90;;;;;;20162001;23;20432;-58
2022/11/24 22:37:05;;;;;;;0.08;0.00;;;2.20;99.90;;;;;;20173556;23;20113;-54
2022/11/24 22:58:13;;;;;;;0.17;0.00;;;2.20;99.90;;;;;;21221537;23;20126;-55
2022/11/24 23:08:15;;;;;;;0.20;0.00;;;2.00;99.90;;;;;;20990027;23;20065;-53
2022/11/24 23:18:17;;;;;;;0.10;0.00;;;1.80;99.90;;;;;;20177921;23;20122;-59
2022/11/24 23:28:21;;;;;;;0.00;0.00;;;1.60;99.60;;;;;;20158334;23;20417;-57
2022/11/24 23:38:28;;;;;;;0.00;0.00;;;1.60;99.70;;;;;;20193945;23;20066;-55
2022/11/24 23:48:31;;;;;;;0.20;0.00;;;1.40;99.90;;;;;;20188805;23;20118;-59
2022/11/24 23:58:34;;;;;;;0.03;0.00;;;1.10;99.90;;;;;;20201419;23;20057;-54
